Time;durP1;ratioP1;P1;durP2;ratioP2;P2;SDS_P1;SDS_P2;PMS_P1;PMS_P2;Temp;Humidity;BMP_temperature;BMP_pressure;BME280_temperature;BME280_humidity;BME280_pressure;Samples;Min_cycle;Max_cycle;Signal;HPM_P1;HPM_P2
2024/01/22 00:01:03;;;;;;;18.33;6.57;;;;;;;5.00;100.00;100056.91;5039555;28;20053;-73
2024/01/22 00:03:29;;;;;;;17.45;6.70;;;;;;;4.98;100.00;100042.16;5038554;28;20044;-73
2024/01/22 00:05:54;;;;;;;17.10;6.23;;;;;;;5.08;100.00;100049.13;5033991;28;20033;-73
2024/01/22 00:08:20;;;;;;;17.37;6.50;;;;;;;5.14;100.00;100074.16;5040974;28;20025;-73
2024/01/22 00:10:45;;;;;;;16.08;6.45;;;;;;;5.13;100.00;100055.75;5046325;28;20697;-73
2024/01/22 00:13:11;;;;;;;25.45;7.90;;;;;;;5.13;100.00;100084.88;5046357;28;20140;-73
2024/01/22 00:15:36;;;;;;;17.63;7.15;;;;;;;5.06;100.00;100121.69;5046126;28;20048;-73
2024/01/22 00:18:02;;;;;;;15.03;6.30;;;;;;;5.02;100.00;100163.44;5046288;28;20044;-73
2024/01/22 00:20:27;;;;;;;18.52;7.00;;;;;;;4.93;100.00;100225.13;5042877;28;20037;-73
2024/01/22 00:22:52;;;;;;;17.75;8.02;;;;;;;4.91;100.00;100224.44;5041302;28;20037;-73
2024/01/22 00:25:18;;;;;;;22.37;6.93;;;;;;;4.83;100.00;100248.09;5039537;28;20044;-74
2024/01/22 00:27:43;;;;;;;19.67;7.73;;;;;;;4.77;100.00;100253.94;5031653;28;20747;-73
2024/01/22 00:30:10;;;;;;;15.27;8.17;;;;;;;4.81;100.00;100252.69;5038262;28;20329;-74
2024/01/22 00:32:36;;;;;;;14.48;7.10;;;;;;;4.82;100.00;100235.84;5038292;28;20400;-74
2024/01/22 00:35:01;;;;;;;17.35;7.63;;;;;;;4.73;100.00;100191.69;5021614;28;20029;-74
2024/01/22 00:37:27;;;;;;;14.60;7.00;;;;;;;4.77;100.00;100193.94;5038149;28;20152;-74
2024/01/22 00:39:55;;;;;;;17.00;7.70;;;;;;;4.77;100.00;100187.81;5037990;28;20033;-74
2024/01/22 00:42:21;;;;;;;14.80;6.65;;;;;;;4.80;100.00;100158.44;5016913;28;20265;-75
2024/01/22 00:44:46;;;;;;;19.88;8.38;;;;;;;4.85;100.00;100117.38;5023170;28;20041;-75
2024/01/22 00:47:11;;;;;;;19.48;6.65;;;;;;;4.68;100.00;100080.22;5045805;28;20100;-75
2024/01/22 00:49:37;;;;;;;15.07;7.10;;;;;;;4.69;100.00;100114.47;5047084;28;20045;-75
2024/01/22 00:52:03;;;;;;;17.23;6.60;;;;;;;4.80;100.00;100121.41;5045310;28;20033;-75
2024/01/22 00:54:28;;;;;;;15.80;6.00;;;;;;;4.88;100.00;100089.81;5045696;28;20449;-75
2024/01/22 00:56:55;;;;;;;13.43;5.87;;;;;;;4.70;100.00;100057.94;5027455;28;20617;-74
2024/01/22 00:59:21;;;;;;;16.20;6.82;;;;;;;4.59;100.00;100037.81;5037208;28;20342;-74
2024/01/22 01:01:46;;;;;;;17.35;7.32;;;;;;;4.70;100.00;100046.56;5037834;28;20044;-74
2024/01/22 01:04:12;;;;;;;16.17;5.93;;;;;;;4.77;100.00;100040.53;5012568;28;20080;-74
2024/01/22 01:06:37;;;;;;;18.03;6.33;;;;;;;4.80;100.00;100026.19;5035075;28;20291;-75
2024/01/22 01:09:02;;;;;;;12.07;5.37;;;;;;;4.75;100.00;99975.56;5037230;28;20260;-74
2024/01/22 01:11:28;;;;;;;12.63;5.20;;;;;;;4.84;100.00;99986.09;5024523;28;20040;-74
2024/01/22 01:13:53;;;;;;;13.67;5.67;;;;;;;4.84;100.00;99975.50;5046500;28;20610;-75
2024/01/22 01:16:19;;;;;;;15.20;6.10;;;;;;;4.82;100.00;99981.94;5034530;28;20407;-74
2024/01/22 01:18:44;;;;;;;13.20;6.07;;;;;;;4.85;100.00;99944.63;5034517;28;20375;-74
2024/01/22 01:21:09;;;;;;;12.90;6.00;;;;;;;4.82;100.00;99959.00;5035384;28;20045;-74
2024/01/22 01:23:35;;;;;;;18.48;5.53;;;;;;;4.89;100.00;99877.22;5037620;28;20388;-74
2024/01/22 01:26:00;;;;;;;16.47;6.40;;;;;;;4.97;100.00;99877.34;5042499;28;20086;-74
2024/01/22 01:28:25;;;;;;;14.57;6.53;;;;;;;4.97;100.00;99845.59;5042313;28;20315;-73
2024/01/22 01:30:51;;;;;;;16.90;7.67;;;;;;;4.88;100.00;99784.81;5041173;28;20167;-73
2024/01/22 01:33:16;;;;;;;15.07;6.23;;;;;;;4.90;100.00;99820.72;5042837;28;20040;-73
2024/01/22 01:35:43;;;;;;;15.10;6.40;;;;;;;4.96;100.00;99803.41;5042209;28;20040;-73
2024/01/22 01:38:08;;;;;;;14.13;5.78;;;;;;;5.00;100.00;99789.72;5044032;28;20025;-73
2024/01/22 01:40:34;;;;;;;17.60;7.30;;;;;;;4.89;100.00;99725.63;5037085;28;20072;-73
2024/01/22 01:42:59;;;;;;;12.70;6.27;;;;;;;4.76;100.00;99697.75;5046005;28;20021;-73
2024/01/22 01:45:25;;;;;;;15.55;6.13;;;;;;;5.06;100.00;99724.81;5032746;28;20091;-73
2024/01/22 01:47:51;;;;;;;12.37;5.83;;;;;;;4.96;100.00;99687.84;5040483;28;20036;-73
2024/01/22 01:50:19;;;;;;;15.32;6.40;;;;;;;5.02;100.00;99705.75;5040349;28;20290;-73
2024/01/22 01:52:45;;;;;;;11.27;6.05;;;;;;;5.02;100.00;99692.53;5034336;28;20100;-72
2024/01/22 01:55:11;;;;;;;15.48;6.10;;;;;;;5.06;100.00;99667.44;5033458;28;20036;-73
2024/01/22 01:57:38;;;;;;;15.05;5.63;;;;;;;5.03;100.00;99662.47;5033529;28;20040;-73
2024/01/22 02:00:05;;;;;;;14.50;6.35;;;;;;;5.08;100.00;99654.88;5035793;28;20172;-73
2024/01/22 02:02:31;;;;;;;14.88;7.30;;;;;;;5.01;100.00;99643.25;5045821;28;20029;-73
2024/01/22 02:04:56;;;;;;;14.57;6.20;;;;;;;4.96;100.00;99629.63;5044252;28;20029;-73
2024/01/22 02:07:29;;;;;;;15.90;6.97;;;;;;;4.98;100.00;99622.38;5044579;28;20674;-73
2024/01/22 02:09:54;;;;;;;15.90;6.32;;;;;;;5.00;100.00;99625.72;5036639;28;20041;-73
2024/01/22 02:12:20;;;;;;;14.60;6.82;;;;;;;4.93;100.00;99603.50;5034541;28;20052;-72
2024/01/22 02:14:46;;;;;;;14.15;5.68;;;;;;;4.94;100.00;99606.97;5033959;28;20119;-73
2024/01/22 02:17:13;;;;;;;12.27;6.50;;;;;;;5.00;100.00;99636.28;5045448;28;20033;-73
2024/01/22 02:19:38;;;;;;;;;;;;;;;4.95;100.00;99620.06;5040105;28;20083;-73
2024/01/22 02:22:04;;;;;;;11.63;6.20;;;;;;;4.89;100.00;99611.91;5036852;28;20391;-73
2024/01/22 02:24:29;;;;;;;13.02;6.10;;;;;;;4.97;100.00;99591.66;5044252;28;20447;-73
2024/01/22 02:26:55;;;;;;;12.40;5.93;;;;;;;4.95;100.00;99579.56;5040753;28;20387;-73
2024/01/22 02:29:20;;;;;;;13.20;6.00;;;;;;;4.94;100.00;99584.03;5037684;28;20040;-73
2024/01/22 02:31:48;;;;;;;13.00;5.77;;;;;;;4.98;100.00;99585.34;5032732;28;20091;-73
2024/01/22 02:34:13;;;;;;;8.32;4.72;;;;;;;4.94;100.00;99604.34;5039408;28;20270;-73
2024/01/22 02:36:39;;;;;;;11.60;6.18;;;;;;;4.84;100.00;99589.38;5029499;28;20480;-74
2024/01/22 02:39:04;;;;;;;13.13;4.80;;;;;;;4.96;100.00;99610.31;5036100;28;20028;-73
2024/01/22 02:41:30;;;;;;;13.17;5.30;;;;;;;5.05;100.00;99635.84;5039998;28;20279;-73
2024/01/22 02:43:55;;;;;;;14.17;5.87;;;;;;;5.11;100.00;99640.53;5042930;28;20024;-73
2024/01/22 02:46:20;;;;;;;12.37;5.90;;;;;;;5.06;100.00;99601.28;5038721;28;20040;-73
2024/01/22 02:48:46;;;;;;;13.53;6.03;;;;;;;5.22;100.00;99634.97;5017930;28;20284;-73
2024/01/22 02:51:11;;;;;;;12.60;5.20;;;;;;;5.24;100.00;99609.19;5034941;28;20108;-72
2024/01/22 02:53:37;;;;;;;10.93;5.93;;;;;;;5.24;100.00;99595.13;5043765;28;20036;-72
2024/01/22 02:56:04;;;;;;;11.60;6.10;;;;;;;5.31;100.00;99605.91;5019539;28;20033;-73
2024/01/22 02:58:31;;;;;;;10.07;5.88;;;;;;;5.40;100.00;99597.03;5040013;28;20064;-73
2024/01/22 03:00:57;;;;;;;9.40;4.22;;;;;;;5.40;100.00;99595.22;5038581;28;20075;-73
2024/01/22 03:03:22;;;;;;;14.27;4.93;;;;;;;5.40;100.00;99597.84;5047540;28;20053;-73
2024/01/22 03:05:47;;;;;;;10.07;4.43;;;;;;;5.44;100.00;99612.44;5047188;28;20040;-73
2024/01/22 03:08:13;;;;;;;8.87;5.47;;;;;;;5.48;100.00;99597.09;5047140;28;20079;-73
2024/01/22 03:10:38;;;;;;;9.93;4.50;;;;;;;5.44;100.00;99609.78;5042542;28;20492;-74
2024/01/22 03:13:04;;;;;;;13.60;5.10;;;;;;;5.58;100.00;99624.28;5030662;28;20040;-73
2024/01/22 03:15:30;;;;;;;10.20;4.80;;;;;;;5.58;100.00;99623.44;5047508;28;20037;-73
2024/01/22 03:17:55;;;;;;;10.27;4.20;;;;;;;5.62;100.00;99620.31;5047220;28;20373;-74
2024/01/22 03:20:21;;;;;;;13.20;5.57;;;;;;;5.70;100.00;99648.66;5044140;28;20037;-73
2024/01/22 03:22:46;;;;;;;8.77;4.03;;;;;;;5.57;100.00;99657.03;5048501;28;20017;-73
2024/01/22 03:25:15;;;;;;;15.50;4.60;;;;;;;5.66;100.00;99673.78;5048333;28;20290;-72
2024/01/22 03:27:40;;;;;;;15.50;6.47;;;;;;;5.60;100.00;99648.78;5045084;28;20033;-73
2024/01/22 03:30:06;;;;;;;7.18;4.25;;;;;;;5.55;100.00;99663.44;5035250;28;20379;-73
2024/01/22 03:32:32;;;;;;;9.75;4.35;;;;;;;5.61;100.00;99699.91;5031553;28;20369;-72
2024/01/22 03:34:57;;;;;;;12.07;5.27;;;;;;;5.54;100.00;99690.94;5045828;28;20805;-73
2024/01/22 03:37:23;;;;;;;9.67;4.50;;;;;;;5.57;100.00;99695.91;5046767;28;20279;-73
2024/01/22 03:39:48;;;;;;;7.35;4.15;;;;;;;5.61;100.00;99713.97;5047695;28;20029;-73
2024/01/22 03:42:13;;;;;;;7.67;3.90;;;;;;;5.63;100.00;99692.66;5063524;28;20045;-73
2024/01/22 03:44:39;;;;;;;9.18;4.30;;;;;;;5.65;100.00;99710.03;5046949;28;20120;-73
2024/01/22 03:47:04;;;;;;;7.78;4.13;;;;;;;5.62;100.00;99718.31;5030274;28;20037;-73
2024/01/22 03:49:30;;;;;;;9.63;4.82;;;;;;;5.65;100.00;99728.56;5030242;28;20041;-72
2024/01/22 03:51:55;;;;;;;7.10;4.80;;;;;;;5.62;100.00;99717.44;5046580;28;20035;-72
2024/01/22 03:54:20;;;;;;;9.37;4.47;;;;;;;5.60;100.00;99706.19;5030030;28;20037;-72
2024/01/22 03:56:46;;;;;;;11.70;4.77;;;;;;;5.60;100.00;99732.69;5046219;28;20040;-72
2024/01/22 03:59:11;;;;;;;7.53;4.00;;;;;;;5.63;100.00;99735.00;5048144;28;20476;-71
2024/01/22 04:01:36;;;;;;;10.63;4.65;;;;;;;5.62;100.00;99706.84;5046573;28;20548;-72
2024/01/22 04:04:03;;;;;;;6.33;4.20;;;;;;;5.63;100.00;99696.13;5046342;28;20064;-72
2024/01/22 04:06:29;;;;;;;6.80;4.13;;;;;;;5.63;100.00;99695.28;5029578;28;20063;-72
2024/01/22 04:08:54;;;;;;;15.63;5.30;;;;;;;5.60;100.00;99691.13;5037180;28;20037;-72
2024/01/22 04:11:20;;;;;;;11.50;5.13;;;;;;;5.55;100.00;99682.84;5022860;28;20029;-72
2024/01/22 04:13:45;;;;;;;7.38;4.80;;;;;;;5.66;100.00;99700.25;5042035;28;20033;-72
2024/01/22 04:16:14;;;;;;;13.30;5.88;;;;;;;5.63;100.00;99659.03;5047176;28;20029;-72
2024/01/22 04:18:43;;;;;;;9.18;4.07;;;;;;;5.62;100.00;99667.13;5037703;28;20483;-72
2024/01/22 04:21:09;;;;;;;6.45;3.67;;;;;;;5.59;100.00;99651.56;5037639;28;20116;-73
2024/01/22 04:23:35;;;;;;;;;;;;;;;5.71;100.00;99659.09;5030135;28;20411;-72
2024/01/22 04:26:04;;;;;;;5.05;3.40;;;;;;;5.64;100.00;99651.91;5062265;28;20019;-73
2024/01/22 04:28:30;;;;;;;9.55;4.30;;;;;;;5.67;100.00;99644.50;5042328;28;20460;-73
2024/01/22 04:30:55;;;;;;;16.35;5.40;;;;;;;5.61;100.00;99617.81;5061397;28;20071;-73
2024/01/22 04:33:20;;;;;;;10.73;4.13;;;;;;;5.65;100.00;99609.41;5045947;28;20127;-75
2024/01/22 04:35:46;;;;;;;8.10;4.23;;;;;;;5.46;100.00;99610.47;5047257;28;20032;-75
2024/01/22 04:38:11;;;;;;;7.80;4.82;;;;;;;5.49;100.00;99604.84;5046290;28;20029;-74
2024/01/22 04:40:37;;;;;;;7.90;4.47;;;;;;;5.39;100.00;99612.09;5045913;28;20384;-74
2024/01/22 04:43:03;;;;;;;10.17;4.60;;;;;;;5.49;100.00;99599.56;5045790;28;20130;-75
2024/01/22 04:45:29;;;;;;;14.73;5.50;;;;;;;5.56;100.00;99588.34;5024268;28;20432;-77
2024/01/22 04:47:54;;;;;;;12.48;4.20;;;;;;;5.50;100.00;99579.19;5046114;28;20547;-76
2024/01/22 04:50:20;;;;;;;15.68;4.72;;;;;;;5.55;100.00;99563.69;5046435;28;20123;-76
2024/01/22 04:52:45;;;;;;;9.18;5.53;;;;;;;5.53;100.00;99549.78;5045999;28;20396;-75
2024/01/22 04:55:10;;;;;;;10.03;4.40;;;;;;;5.52;100.00;99540.16;5040876;28;20040;-75
2024/01/22 04:57:36;;;;;;;10.83;4.00;;;;;;;5.44;100.00;99495.16;5045704;28;20083;-75
2024/01/22 05:00:02;;;;;;;12.10;4.30;;;;;;;5.43;100.00;99515.50;5045659;28;20044;-75
2024/01/22 05:02:27;;;;;;;11.35;5.13;;;;;;;5.37;100.00;99513.47;5045585;28;20087;-76
2024/01/22 05:05:02;;;;;;;9.63;4.83;;;;;;;5.52;100.00;99518.16;5046677;28;20129;-75
2024/01/22 05:07:27;;;;;;;8.77;4.28;;;;;;;5.53;100.00;99493.38;5045709;28;20283;-75
2024/01/22 05:09:57;;;;;;;9.67;4.53;;;;;;;5.59;100.00;99487.41;5045598;28;20031;-75
2024/01/22 05:12:23;;;;;;;12.50;4.70;;;;;;;5.54;100.00;99492.38;5045521;28;20055;-75
2024/01/22 05:14:48;;;;;;;9.30;4.07;;;;;;;5.56;100.00;99467.38;5045410;28;20036;-75
2024/01/22 05:17:14;;;;;;;8.40;4.33;;;;;;;5.55;100.00;99455.16;5045194;28;20032;-75
2024/01/22 05:19:39;;;;;;;11.33;3.97;;;;;;;5.71;100.00;99470.22;5038111;28;20045;-75
2024/01/22 05:22:04;;;;;;;8.17;3.70;;;;;;;5.81;100.00;99448.91;5037575;28;20021;-75
2024/01/22 05:24:29;;;;;;;9.40;3.57;;;;;;;5.83;100.00;99450.41;5037678;28;20044;-76
2024/01/22 05:26:55;;;;;;;10.03;4.37;;;;;;;5.88;100.00;99463.97;5033371;28;20503;-75
2024/01/22 05:29:20;;;;;;;7.93;3.70;;;;;;;5.99;100.00;99472.63;5037517;28;20311;-75
2024/01/22 05:31:45;;;;;;;7.93;3.73;;;;;;;5.92;100.00;99464.47;5037257;28;20037;-75
2024/01/22 05:34:11;;;;;;;7.50;3.47;;;;;;;5.87;100.00;99467.59;5030530;28;20041;-75
2024/01/22 05:36:37;;;;;;;12.00;5.30;;;;;;;5.86;100.00;99470.44;5029677;28;20073;-75
2024/01/22 05:39:05;;;;;;;10.50;4.53;;;;;;;5.96;100.00;99478.25;5044426;28;20135;-76
2024/01/22 05:41:31;;;;;;;6.20;3.97;;;;;;;6.03;100.00;99476.59;5060273;22;20446;-82
2024/01/22 05:43:56;;;;;;;6.28;4.57;;;;;;;5.93;100.00;99479.38;5021024;28;20030;-83
2024/01/22 05:46:22;;;;;;;7.10;4.32;;;;;;;6.00;100.00;99490.19;5016571;28;20061;-83
2024/01/22 05:48:47;;;;;;;7.03;3.67;;;;;;;5.90;100.00;99480.53;5016195;28;20299;-81
2024/01/22 05:51:13;;;;;;;16.97;6.43;;;;;;;6.00;100.00;99490.19;4989602;28;20377;-81
2024/01/22 05:53:40;;;;;;;10.52;4.90;;;;;;;5.96;100.00;99484.38;5024190;28;20037;-81
2024/01/22 05:56:06;;;;;;;9.02;4.57;;;;;;;5.96;100.00;99472.97;5003518;28;20033;-83
2024/01/22 05:58:31;;;;;;;6.95;4.53;;;;;;;5.89;100.00;99473.56;5011772;28;20029;-81
2024/01/22 06:00:56;;;;;;;8.67;4.50;;;;;;;5.89;100.00;99473.56;5011618;28;20520;-82
2024/01/22 06:03:21;;;;;;;7.47;5.00;;;;;;;6.02;100.00;99459.88;5006618;28;20108;-80
2024/01/22 06:05:47;;;;;;;7.70;4.30;;;;;;;6.02;100.00;99440.53;5019361;28;20133;-81
2024/01/22 06:08:12;;;;;;;8.23;4.73;;;;;;;5.97;100.00;99438.38;5022351;28;20034;-81
2024/01/22 06:10:38;;;;;;;6.23;4.13;;;;;;;6.07;100.00;99436.38;5024126;28;20045;-82
2024/01/22 06:13:03;;;;;;;8.90;4.18;;;;;;;6.10;100.00;99414.00;5028262;28;20037;-81
2024/01/22 06:15:29;;;;;;;11.30;5.38;;;;;;;6.13;100.00;99437.53;5017001;28;20030;-81
2024/01/22 06:17:54;;;;;;;13.23;5.40;;;;;;;6.14;100.00;99412.69;5008406;28;20033;-81
2024/01/22 06:20:19;;;;;;;6.80;4.17;;;;;;;6.14;100.00;99391.50;5007035;28;20284;-81
2024/01/22 06:22:45;;;;;;;7.90;3.60;;;;;;;6.25;100.00;99395.59;5007879;28;20084;-83
2024/01/22 06:25:10;;;;;;;6.97;4.10;;;;;;;6.30;100.00;99394.13;5020655;28;20069;-81
2024/01/22 06:27:35;;;;;;;9.25;4.07;;;;;;;6.45;100.00;99393.44;5014018;28;20500;-83
2024/01/22 06:30:01;;;;;;;9.17;3.60;;;;;;;6.46;100.00;99389.78;5018995;28;20033;-81
2024/01/22 06:32:27;;;;;;;9.15;4.47;;;;;;;6.55;100.00;99388.75;5024315;28;20582;-82
2024/01/22 06:34:53;;;;;;;6.15;4.35;;;;;;;6.49;100.00;99368.25;5025058;28;20498;-80
2024/01/22 06:37:22;;;;;;;4.57;3.00;;;;;;;6.53;100.00;99365.09;5030166;28;20155;-80
2024/01/22 06:39:47;;;;;;;6.93;3.58;;;;;;;6.51;100.00;99351.16;5026042;28;20032;-79
2024/01/22 06:42:13;;;;;;;7.40;3.70;;;;;;;6.61;100.00;99374.00;5013051;28;20041;-81
2024/01/22 06:44:38;;;;;;;4.37;3.17;;;;;;;6.56;100.00;99379.81;5029976;28;20045;-80
2024/01/22 06:47:04;;;;;;;5.83;3.77;;;;;;;6.72;100.00;99365.69;5013257;28;20029;-80
2024/01/22 06:49:30;;;;;;;5.88;3.65;;;;;;;6.70;100.00;99367.69;5015258;28;20037;-80
2024/01/22 06:51:55;;;;;;;4.53;3.30;;;;;;;6.65;100.00;99365.53;4992976;28;20061;-80
2024/01/22 06:54:21;;;;;;;8.63;3.50;;;;;;;6.79;100.00;99373.75;5009710;28;20030;-80
2024/01/22 06:56:46;;;;;;;6.87;4.57;;;;;;;6.67;100.00;99360.06;4996657;28;20671;-79
2024/01/22 06:59:11;;;;;;;5.17;3.30;;;;;;;6.83;100.00;99362.63;5012940;28;20292;-79
2024/01/22 07:01:37;;;;;;;4.77;3.63;;;;;;;6.82;100.00;99349.56;5005153;28;20033;-80
2024/01/22 07:04:03;;;;;;;4.83;3.27;;;;;;;6.93;100.00;99375.69;5008083;28;20037;-80
2024/01/22 07:06:28;;;;;;;;;;;;;;;7.05;100.00;99362.91;5013328;28;20056;-81
2024/01/22 07:08:54;;;;;;;4.15;2.85;;;;;;;7.07;100.00;99380.31;5029372;28;20367;-79
2024/01/22 07:11:19;;;;;;;5.47;3.90;;;;;;;7.12;100.00;99362.03;5031351;28;20036;-80
2024/01/22 07:13:44;;;;;;;6.13;3.43;;;;;;;7.28;100.00;99371.75;5029383;28;20037;-80
2024/01/22 07:16:11;;;;;;;4.77;3.27;;;;;;;7.29;100.00;99373.38;5009314;28;20109;-80
2024/01/22 07:18:37;;;;;;;4.10;2.90;;;;;;;7.32;100.00;99354.44;5006914;28;20072;-80
2024/01/22 07:21:02;;;;;;;4.70;3.33;;;;;;;7.46;100.00;99350.19;5011783;28;20057;-81
2024/01/22 07:23:28;;;;;;;5.63;2.75;;;;;;;7.51;100.00;99352.31;5000178;28;20425;-83
2024/01/22 07:25:56;;;;;;;2.92;2.63;;;;;;;7.54;100.00;99355.47;5001893;28;20022;-80
2024/01/22 07:28:22;;;;;;;5.35;2.72;;;;;;;7.54;100.00;99352.00;5000081;28;20125;-82
2024/01/22 07:30:47;;;;;;;3.20;2.90;;;;;;;7.63;100.00;99377.47;5007843;28;20825;-81
2024/01/22 07:33:13;;;;;;;3.60;3.00;;;;;;;7.69;100.00;99365.31;5022761;28;20033;-82
2024/01/22 07:35:38;;;;;;;3.47;3.17;;;;;;;7.71;100.00;99345.53;5025093;28;20037;-82
2024/01/22 07:38:05;;;;;;;3.33;2.43;;;;;;;7.73;100.00;99361.31;5008941;28;20025;-82
2024/01/22 07:40:31;;;;;;;5.18;2.92;;;;;;;7.73;100.00;99351.50;5001102;28;20100;-81
2024/01/22 07:42:56;;;;;;;4.32;3.13;;;;;;;7.76;100.00;99331.72;5002945;28;20473;-82
2024/01/22 07:45:22;;;;;;;3.80;3.10;;;;;;;7.90;100.00;99336.25;4999604;28;20476;-82
2024/01/22 07:47:47;;;;;;;5.07;3.30;;;;;;;7.93;100.00;99329.75;5011659;28;20104;-80
2024/01/22 07:50:14;;;;;;;3.90;2.57;;;;;;;7.99;100.00;99335.16;5006035;28;20042;-80
2024/01/22 07:52:41;;;;;;;5.78;3.65;;;;;;;8.04;100.00;99337.28;5020795;28;20101;-82
2024/01/22 07:55:07;;;;;;;3.55;2.72;;;;;;;8.08;100.00;99306.69;5018387;28;20034;-80
2024/01/22 07:57:34;;;;;;;3.17;2.70;;;;;;;8.13;100.00;99319.44;5022619;28;20383;-80
2024/01/22 07:59:59;;;;;;;9.25;3.33;;;;;;;8.14;100.00;99300.63;5027598;28;20433;-82
2024/01/22 08:02:24;;;;;;;6.03;3.47;;;;;;;8.26;100.00;99311.63;5006842;28;20053;-81
2024/01/22 08:04:50;;;;;;;4.63;3.47;;;;;;;8.20;100.00;99293.78;5028886;28;20038;-81
2024/01/22 08:07:17;;;;;;;4.32;3.22;;;;;;;8.19;100.00;99297.41;5028815;28;20033;-81
2024/01/22 08:09:42;;;;;;;4.25;2.80;;;;;;;8.36;100.00;99312.22;5029085;28;20041;-81
2024/01/22 08:12:08;;;;;;;3.37;2.63;;;;;;;8.24;100.00;99321.63;5002300;28;20060;-81
2024/01/22 08:14:34;;;;;;;4.93;2.50;;;;;;;8.34;100.00;99311.56;5012764;28;20421;-81
2024/01/22 08:17:01;;;;;;;2.88;2.53;;;;;;;8.34;100.00;99289.47;5024249;28;20274;-82
2024/01/22 08:19:26;;;;;;;3.17;2.30;;;;;;;8.49;100.00;99310.75;5024836;28;20068;-81
2024/01/22 08:21:52;;;;;;;2.75;2.38;;;;;;;8.50;100.00;99293.78;5029010;28;20631;-82
2024/01/22 08:24:18;;;;;;;;;;;;;;;8.57;100.00;99289.38;5013134;28;20041;-82
2024/01/22 08:26:43;;;;;;;3.88;2.45;;;;;;;8.63;100.00;99283.31;5028869;28;19913;-82
2024/01/22 08:29:08;;;;;;;3.33;2.00;;;;;;;8.76;100.00;99288.81;5011730;28;20068;-81
2024/01/22 08:31:34;;;;;;;2.20;2.00;;;;;;;8.71;100.00;99274.41;5016703;28;20042;-82
2024/01/22 08:34:02;;;;;;;4.73;2.53;;;;;;;8.70;100.00;99260.28;5010274;28;20145;-82
2024/01/22 08:36:28;;;;;;;3.67;2.70;;;;;;;8.84;100.00;99270.06;5022736;28;20036;-83
2024/01/22 08:38:53;;;;;;;3.40;2.28;;;;;;;8.92;100.00;99271.81;5020156;28;20034;-82
2024/01/22 08:41:19;;;;;;;2.23;1.97;;;;;;;8.83;100.00;99243.66;5028470;28;20033;-81
2024/01/22 08:43:44;;;;;;;3.53;2.47;;;;;;;8.93;100.00;99268.13;5008488;28;20030;-83
2024/01/22 08:46:09;;;;;;;3.33;1.93;;;;;;;8.96;100.00;99264.25;5021296;28;20035;-82
2024/01/22 08:48:35;;;;;;;2.27;2.07;;;;;;;8.87;100.00;99263.53;5024323;28;20029;-79
2024/01/22 08:51:00;;;;;;;4.90;2.80;;;;;;;8.79;100.00;99266.34;5019754;28;20030;-82
2024/01/22 08:53:26;;;;;;;2.72;2.00;;;;;;;8.75;100.00;99276.50;5006100;28;20087;-83
2024/01/22 08:55:51;;;;;;;3.03;2.40;;;;;;;8.83;100.00;99273.75;5030434;28;20400;-82
2024/01/22 08:58:17;;;;;;;5.73;2.57;;;;;;;8.95;100.00;99300.72;5021284;28;20038;-82
2024/01/22 09:00:42;;;;;;;2.80;2.15;;;;;;;8.88;100.00;99313.13;4994620;28;20038;-80
2024/01/22 09:03:08;;;;;;;4.03;2.63;;;;;;;8.92;100.00;99306.41;5000904;28;20443;-79
2024/01/22 09:05:34;;;;;;;2.58;2.25;;;;;;;8.94;100.00;99315.00;5009525;28;20052;-79
2024/01/22 09:07:59;;;;;;;4.97;2.33;;;;;;;8.94;100.00;99335.50;5014894;28;20125;-79
2024/01/22 09:10:26;;;;;;;6.03;2.47;;;;;;;8.89;100.00;99330.72;5020656;28;20029;-79
2024/01/22 09:12:52;;;;;;;4.63;2.88;;;;;;;8.89;100.00;99344.03;5020444;28;20488;-78
2024/01/22 09:15:20;;;;;;;4.03;3.05;;;;;;;8.69;100.00;99335.81;5021367;28;20033;-78
2024/01/22 09:17:46;;;;;;;6.15;3.40;;;;;;;8.66;100.00;99344.13;5013067;28;20099;-78
2024/01/22 09:20:11;;;;;;;4.63;2.97;;;;;;;8.76;100.00;99358.00;5016113;28;20041;-79
2024/01/22 09:22:37;;;;;;;4.90;3.17;;;;;;;8.72;100.00;99345.25;5008844;28;20033;-80
2024/01/22 09:25:03;;;;;;;4.25;2.78;;;;;;;8.82;100.00;99357.25;5016199;28;20526;-81
2024/01/22 09:27:29;;;;;;;3.30;3.00;;;;;;;8.72;100.00;99366.53;5026969;28;20546;-78
2024/01/22 09:29:55;;;;;;;4.80;2.93;;;;;;;8.65;100.00;99345.16;5011437;28;20030;-81
2024/01/22 09:32:21;;;;;;;2.10;1.90;;;;;;;8.80;100.00;99393.91;4991765;28;20295;-79
2024/01/22 09:34:46;;;;;;;3.38;2.70;;;;;;;8.77;100.00;99401.41;5004984;28;20108;-79
2024/01/22 09:37:11;;;;;;;3.37;2.10;;;;;;;8.79;100.00;99388.75;5011591;28;20036;-79
2024/01/22 09:39:37;;;;;;;5.80;1.90;;;;;;;8.72;100.00;99398.47;5007081;28;20464;-78
2024/01/22 09:42:03;;;;;;;5.97;2.33;;;;;;;8.85;100.00;99412.78;5011659;28;20281;-79
2024/01/22 09:44:29;;;;;;;2.20;1.90;;;;;;;8.79;100.00;99418.03;5005537;28;20030;-80
2024/01/22 09:46:55;;;;;;;2.35;2.15;;;;;;;8.78;100.00;99403.91;4999363;28;20084;-79
2024/01/22 09:49:20;;;;;;;;;;;;;;;8.94;100.00;99412.69;5023495;28;20072;-79
2024/01/22 09:51:46;;;;;;;5.45;1.20;;;;;;;8.94;100.00;99418.00;4992079;28;20327;-81
2024/01/22 09:54:19;;;;;;;3.57;1.73;;;;;;;9.02;100.00;99404.63;5007281;28;20029;-82
2024/01/22 09:56:52;;;;;;;2.05;1.13;;;;;;;8.92;100.00;99399.56;4995493;28;20793;-83
2024/01/22 09:59:28;;;;;;;3.38;1.45;;;;;;;8.87;100.00;99402.78;5002865;28;20026;-82
2024/01/22 10:01:55;;;;;;;3.05;1.15;;;;;;;8.82;100.00;99404.34;5035560;28;20069;-82
2024/01/22 10:04:23;;;;;;;;;;;;;;;8.88;100.00;99430.22;5021522;28;20073;-83
2024/01/22 10:06:49;;;;;;;8.32;1.65;;;;;;;8.79;100.00;99431.31;4992702;28;19925;-81
2024/01/22 10:09:17;;;;;;;6.28;1.20;;;;;;;8.67;100.00;99449.56;5017279;28;20121;-80
2024/01/22 10:11:43;;;;;;;9.18;3.03;;;;;;;8.70;100.00;99443.88;5010375;28;20021;-80
2024/01/22 10:14:09;;;;;;;12.40;2.40;;;;;;;8.68;100.00;99445.91;5001892;28;20524;-81
2024/01/22 10:16:36;;;;;;;14.60;2.67;;;;;;;8.65;100.00;99443.59;4997418;28;20042;-81
2024/01/22 10:19:11;;;;;;;15.80;2.50;;;;;;;8.65;100.00;99438.28;5008466;28;20662;-81
2024/01/22 10:21:38;;;;;;;10.07;2.90;;;;;;;8.76;100.00;99448.47;5013935;28;20091;-83
2024/01/22 10:24:07;;;;;;;12.07;2.42;;;;;;;8.74;100.00;99439.84;4992174;28;20036;-82
2024/01/22 10:26:34;;;;;;;11.07;2.65;;;;;;;8.65;100.00;99438.28;5010345;28;20037;-80
2024/01/22 10:29:21;;;;;;;8.50;2.85;;;;;;;8.60;100.00;99419.38;5012437;28;20030;-83
2024/01/22 10:31:57;;;;;;;13.27;2.65;;;;;;;8.70;100.00;99438.56;4994114;28;20050;-81
2024/01/22 10:34:24;;;;;;;14.98;2.50;;;;;;;8.70;100.00;99433.22;5011494;28;20068;-80
2024/01/22 10:37:06;;;;;;;17.52;3.28;;;;;;;8.57;100.00;99417.06;5010317;28;20025;-82
2024/01/22 10:39:33;;;;;;;9.23;2.65;;;;;;;8.65;100.00;99414.34;4995304;28;20477;-83
2024/01/22 10:42:09;;;;;;;12.48;2.13;;;;;;;8.71;100.00;99423.41;4991078;28;20034;-83
2024/01/22 10:44:37;;;;;;;23.40;4.30;;;;;;;8.64;100.00;99426.81;5013261;28;20037;-83
2024/01/22 10:47:03;;;;;;;22.65;4.60;;;;;;;8.69;100.00;99415.63;5006885;28;20085;-85
2024/01/22 10:49:30;;;;;;;19.40;3.20;;;;;;;8.60;100.00;99411.41;5008736;28;20073;-83
2024/01/22 10:51:57;;;;;;;;;;;;;;;8.69;100.00;99410.31;5014819;28;20030;-81
2024/01/22 10:54:22;;;;;;;21.88;3.30;;;;;;;8.61;100.00;99426.34;5014811;28;19923;-82
2024/01/22 10:56:55;;;;;;;14.00;2.93;;;;;;;8.61;100.00;99431.66;5020242;28;20128;-81
2024/01/22 10:59:21;;;;;;;17.23;3.47;;;;;;;8.64;100.00;99412.69;5010974;28;20053;-85
2024/01/22 11:01:52;;;;;;;22.08;4.72;;;;;;;8.49;100.00;99390.56;5000825;28;20527;-83
2024/01/22 11:04:27;;;;;;;19.85;4.30;;;;;;;8.50;100.00;99390.41;5018203;28;20041;-81
2024/01/22 11:06:58;;;;;;;16.10;3.05;;;;;;;8.69;100.00;99383.69;5011269;28;20790;-83
2024/01/22 11:09:30;;;;;;;40.45;4.80;;;;;;;8.72;100.00;99372.69;5003030;28;20037;-83
2024/01/22 11:12:03;;;;;;;21.88;4.55;;;;;;;8.72;100.00;99369.19;5010521;28;20029;-83
2024/01/22 11:14:28;;;;;;;23.08;4.18;;;;;;;8.71;100.00;99368.38;5007913;28;20060;-85
2024/01/22 11:16:54;;;;;;;17.55;4.03;;;;;;;8.82;100.00;99357.25;5007194;28;20026;-84
2024/01/22 11:19:23;;;;;;;27.08;4.57;;;;;;;8.68;100.00;99338.66;5011847;28;20029;-84
2024/01/22 11:21:52;;;;;;;21.45;2.88;;;;;;;8.78;100.00;99350.66;5000194;28;20125;-85
2024/01/22 11:24:22;;;;;;;20.88;3.80;;;;;;;8.95;100.00;99350.47;5006532;28;20099;-80